createdAt,value
2023-02-05T00:01:46.961Z,4.14
2023-02-05T00:04:22.756Z,4.16
2023-02-05T00:06:53.764Z,4.12
2023-02-05T00:09:23.724Z,4.08
2023-02-05T00:12:06.192Z,4.01
2023-02-05T00:14:38.946Z,3.91
2023-02-05T00:17:06.705Z,3.89
2023-02-05T00:19:34.371Z,3.85
2023-02-05T00:22:01.969Z,3.89
2023-02-05T00:24:29.614Z,3.81
2023-02-05T00:26:59.418Z,3.61
2023-02-05T00:29:27.014Z,3.53
2023-02-05T00:31:54.756Z,3.49
2023-02-05T00:34:22.289Z,3.58
2023-02-05T00:36:51.899Z,3.66
2023-02-05T00:39:20.046Z,3.56
2023-02-05T00:41:49.358Z,3.63
2023-02-05T00:44:16.956Z,3.61
2023-02-05T00:46:44.735Z,3.66
2023-02-05T00:49:12.915Z,3.66
2023-02-05T00:51:40.539Z,3.52
2023-02-05T00:54:08.174Z,3.52
2023-02-05T00:56:36.589Z,3.55
2023-02-05T00:59:05.737Z,3.60
2023-02-05T01:01:33.356Z,3.54
2023-02-05T01:04:01.046Z,3.18
2023-02-05T01:06:28.606Z,3.08
2023-02-05T01:08:56.506Z,3.01
2023-02-05T01:11:24.138Z,3.27
2023-02-05T01:13:51.671Z,3.35
2023-02-05T01:16:19.364Z,3.38
2023-02-05T01:18:47.009Z,3.31
2023-02-05T01:21:14.542Z,3.31
2023-02-05T01:23:42.127Z,3.38
2023-02-05T01:26:10.714Z,3.40
2023-02-05T01:28:38.285Z,3.34
2023-02-05T01:31:06.987Z,3.34
2023-02-05T01:33:34.724Z,3.44
2023-02-05T01:36:02.485Z,3.39
2023-02-05T01:38:30.024Z,3.43
2023-02-05T01:41:00.041Z,3.53
2023-02-05T01:43:27.690Z,3.45
2023-02-05T01:45:58.146Z,3.41
2023-02-05T01:48:32.757Z,3.31
2023-02-05T01:51:06.158Z,3.38
2023-02-05T01:53:37.383Z,3.40
2023-02-05T01:56:17.782Z,3.42
2023-02-05T01:58:52.165Z,3.42
2023-02-05T02:01:20.406Z,3.34
2023-02-05T02:03:50.475Z,3.26
2023-02-05T02:06:18.226Z,3.27
2023-02-05T02:08:46.455Z,3.30
2023-02-05T02:11:17.406Z,3.29
2023-02-05T02:13:47.710Z,3.24
2023-02-05T02:16:16.068Z,3.30
2023-02-05T02:18:44.720Z,3.29
2023-02-05T02:21:57.186Z,3.28
2023-02-05T02:24:55.031Z,3.20
2023-02-05T02:27:22.690Z,3.11
2023-02-05T02:30:01.582Z,3.02
2023-02-05T02:32:38.303Z,3.11
2023-02-05T02:35:23.682Z,3.16
2023-02-05T02:38:19.083Z,3.04
2023-02-05T02:40:54.021Z,2.98
2023-02-05T02:43:39.910Z,2.93
2023-02-05T02:46:17.596Z,2.90
2023-02-05T02:48:48.048Z,2.87
2023-02-05T02:51:18.452Z,2.87
2023-02-05T02:53:49.434Z,2.92
2023-02-05T02:56:19.690Z,2.92
2023-02-05T02:58:51.658Z,2.88
2023-02-05T03:01:25.740Z,2.97
2023-02-05T03:04:00.480Z,2.84
2023-02-05T03:06:31.842Z,2.95
2023-02-05T03:09:18.299Z,2.84
2023-02-05T03:11:45.860Z,2.83
2023-02-05T03:14:15.652Z,2.83
2023-02-05T03:16:43.230Z,2.77
2023-02-05T03:19:10.895Z,2.71
2023-02-05T03:21:50.192Z,2.62
2023-02-05T03:24:18.317Z,2.58
2023-02-05T03:26:45.964Z,2.62
2023-02-05T03:29:26.499Z,2.61
2023-02-05T03:32:07.551Z,2.53
2023-02-05T03:34:57.100Z,2.55
2023-02-05T03:37:52.709Z,2.52
2023-02-05T03:40:53.023Z,2.39
2023-02-05T03:43:30.333Z,2.39
2023-02-05T03:46:17.543Z,2.30
2023-02-05T03:49:19.551Z,2.32
2023-02-05T03:51:57.260Z,2.39
2023-02-05T03:54:43.738Z,2.31
2023-02-05T03:57:23.046Z,2.31
2023-02-05T03:59:51.506Z,2.30
2023-02-05T04:02:22.696Z,2.33
2023-02-05T04:04:50.452Z,2.24
2023-02-05T04:07:18.431Z,2.26
2023-02-05T04:09:47.842Z,2.09
2023-02-05T04:12:15.561Z,2.06
2023-02-05T04:14:43.528Z,2.09
2023-02-05T04:17:13.083Z,2.07
2023-02-05T04:19:41.883Z,2.11
2023-02-05T04:22:10.825Z,2.11
2023-02-05T04:24:43.220Z,2.12
2023-02-05T04:27:11.010Z,2.28
2023-02-05T04:29:38.773Z,2.21
2023-02-05T04:32:07.124Z,2.15
2023-02-05T04:34:34.837Z,2.16
2023-02-05T04:37:03.003Z,2.06
2023-02-05T04:39:31.710Z,2.05
2023-02-05T04:41:59.579Z,1.94
2023-02-05T04:44:27.230Z,1.96
2023-02-05T04:46:55.850Z,1.97
2023-02-05T04:49:23.355Z,2.05
2023-02-05T04:51:51.188Z,1.89
2023-02-05T04:54:18.725Z,1.91
2023-02-05T04:56:47.342Z,1.92
2023-02-05T04:59:15.129Z,1.94
2023-02-05T05:01:42.697Z,1.94
2023-02-05T05:04:10.258Z,2.00
2023-02-05T05:06:38.876Z,1.98
2023-02-05T05:09:06.687Z,1.94
2023-02-05T05:11:34.239Z,1.91
2023-02-05T05:14:01.901Z,1.94
2023-02-05T05:16:29.418Z,2.03
2023-02-05T05:18:56.957Z,2.03
2023-02-05T05:21:24.668Z,1.98
2023-02-05T05:23:53.342Z,1.96
2023-02-05T05:26:20.976Z,1.99
2023-02-05T05:28:54.335Z,1.94
2023-02-05T05:31:21.903Z,1.86
2023-02-05T05:33:51.181Z,1.87
2023-02-05T05:36:19.611Z,1.93
2023-02-05T05:38:47.243Z,1.88
2023-02-05T05:41:39.536Z,1.97
2023-02-05T05:44:07.216Z,1.90
2023-02-05T05:46:35.401Z,1.86
2023-02-05T05:49:03.343Z,1.87
2023-02-05T05:51:32.683Z,1.88
2023-02-05T05:54:00.493Z,1.74
2023-02-05T05:56:28.152Z,1.76
2023-02-05T05:58:55.837Z,1.78
2023-02-05T06:01:23.413Z,1.70
2023-02-05T06:03:51.042Z,1.89
2023-02-05T06:06:18.687Z,1.81
2023-02-05T06:08:46.299Z,1.70
2023-02-05T06:11:13.868Z,1.70
2023-02-05T06:13:41.938Z,1.66
2023-02-05T06:16:09.767Z,1.61
2023-02-05T06:18:37.495Z,1.69
2023-02-05T06:21:05.974Z,1.74
2023-02-05T06:23:34.508Z,1.79
2023-02-05T06:26:02.366Z,1.67
2023-02-05T06:28:29.929Z,1.56
2023-02-05T06:30:58.000Z,1.55
2023-02-05T06:33:25.624Z,1.56
2023-02-05T06:35:53.184Z,1.53
2023-02-05T06:38:20.745Z,1.63
2023-02-05T06:40:48.826Z,1.74
2023-02-05T06:43:16.457Z,1.70
2023-02-05T06:45:43.990Z,1.71
2023-02-05T06:48:11.400Z,1.77
2023-02-05T06:50:42.780Z,1.77
2023-02-05T06:53:11.968Z,1.82
2023-02-05T06:55:41.132Z,1.78
2023-02-05T06:58:08.775Z,1.87
2023-02-05T07:00:37.016Z,1.85
2023-02-05T07:03:06.952Z,1.92
2023-02-05T07:05:35.478Z,2.02
2023-02-05T07:08:04.268Z,2.03
2023-02-05T07:10:33.254Z,2.01
2023-02-05T07:13:01.019Z,2.22
2023-02-05T07:15:28.628Z,2.12
2023-02-05T07:17:56.328Z,2.23
2023-02-05T07:20:24.009Z,2.19
2023-02-05T07:22:51.635Z,2.24
2023-02-05T07:25:19.848Z,2.30
2023-02-05T07:27:47.467Z,2.46
2023-02-05T07:30:15.449Z,2.60
2023-02-05T07:32:43.301Z,2.68
2023-02-05T07:35:10.898Z,2.82
2023-02-05T07:37:39.607Z,2.84
2023-02-05T07:40:07.922Z,3.00
2023-02-05T07:42:35.535Z,3.22
2023-02-05T07:45:04.917Z,3.18
2023-02-05T07:47:32.529Z,3.26
2023-02-05T07:50:00.140Z,3.44
2023-02-05T07:52:28.741Z,3.62
2023-02-05T07:54:56.354Z,3.43
2023-02-05T07:57:24.310Z,3.61
2023-02-05T07:59:51.756Z,3.76
2023-02-05T08:02:19.282Z,3.82
2023-02-05T08:09:36.504Z,3.83
2023-02-05T08:12:04.674Z,3.71
2023-02-05T08:14:35.715Z,3.75
2023-02-05T08:17:04.598Z,3.96
2023-02-05T08:19:32.358Z,4.14
2023-02-05T08:22:00.109Z,4.46
2023-02-05T08:24:29.157Z,4.60
2023-02-05T08:26:56.814Z,4.88
2023-02-05T08:29:24.699Z,5.35
2023-02-05T08:31:52.471Z,5.45
2023-02-05T08:34:20.988Z,5.97
2023-02-05T08:36:48.802Z,6.55
2023-02-05T08:39:20.953Z,7.03
2023-02-05T08:41:48.714Z,8.89
2023-02-05T08:44:18.682Z,9.84
2023-02-05T08:46:53.924Z,10.51
2023-02-05T08:49:21.782Z,10.40
2023-02-05T08:52:05.590Z,10.01
2023-02-05T08:54:34.389Z,10.15
2023-02-05T08:57:02.428Z,9.75
2023-02-05T08:59:30.187Z,11.51
2023-02-05T09:02:00.956Z,11.10
2023-02-05T09:04:32.172Z,10.26
2023-02-05T09:06:59.919Z,10.58
2023-02-05T09:09:27.642Z,9.92
2023-02-05T09:12:00.433Z,9.33
2023-02-05T09:14:36.582Z,9.17
2023-02-05T09:17:08.178Z,8.30
2023-02-05T09:19:39.583Z,8.42
2023-02-05T09:22:15.319Z,7.29
2023-02-05T09:24:49.851Z,7.63
2023-02-05T09:27:31.486Z,7.90
2023-02-05T09:30:02.117Z,8.10
2023-02-05T09:37:48.502Z,8.19
2023-02-05T09:45:29.669Z,6.61
2023-02-05T09:48:07.921Z,6.84
2023-02-05T09:50:39.940Z,7.15
2023-02-05T09:53:16.863Z,7.15
2023-02-05T09:55:47.333Z,7.53
2023-02-05T09:58:31.287Z,6.92
2023-02-05T10:01:11.460Z,6.84
2023-02-05T10:03:52.708Z,6.83
2023-02-05T10:06:21.364Z,6.72
2023-02-05T10:08:48.834Z,6.61
2023-02-05T10:11:41.170Z,7.15
2023-02-05T10:14:36.141Z,7.65
2023-02-05T10:17:15.632Z,7.15
2023-02-05T10:19:52.384Z,6.66
2023-02-05T10:22:28.708Z,6.72
2023-02-05T10:25:14.665Z,6.76
2023-02-05T10:27:49.825Z,7.03
2023-02-05T10:30:26.092Z,7.08
2023-02-05T10:33:00.235Z,6.92
2023-02-05T10:35:44.793Z,7.39
2023-02-05T10:38:23.109Z,7.00
2023-02-05T10:40:55.204Z,7.16
2023-02-05T10:43:30.323Z,7.28
2023-02-05T10:45:59.891Z,7.10
2023-02-05T10:48:51.085Z,7.18
2023-02-05T10:51:32.801Z,6.79
2023-02-05T10:54:00.704Z,7.02
2023-02-05T10:56:28.250Z,6.80
2023-02-05T10:58:59.576Z,7.19
2023-02-05T11:01:33.859Z,7.38
2023-02-05T11:04:06.038Z,7.30
2023-02-05T11:06:39.860Z,7.80
2023-02-05T11:09:29.126Z,8.04
2023-02-05T11:12:05.267Z,7.57
2023-02-05T11:14:38.736Z,7.19
2023-02-05T11:17:21.433Z,7.42
2023-02-05T11:19:57.348Z,7.50
2023-02-05T11:22:30.712Z,7.56
2023-02-05T11:25:16.911Z,7.41
2023-02-05T11:27:59.396Z,7.32
2023-02-05T11:30:50.133Z,7.34
2023-02-05T11:33:26.513Z,7.64
2023-02-05T11:35:56.752Z,7.41
2023-02-05T11:38:51.601Z,7.74
2023-02-05T11:41:48.855Z,7.93
2023-02-05T11:44:35.737Z,7.70
2023-02-05T11:47:03.745Z,7.81
2023-02-05T11:49:37.002Z,7.98
2023-02-05T11:52:14.039Z,8.13
2023-02-05T11:54:47.673Z,7.99
2023-02-05T11:57:15.146Z,7.75
2023-02-05T11:59:44.774Z,8.28
2023-02-05T12:02:42.423Z,8.44
2023-02-05T12:05:13.049Z,8.85
2023-02-05T12:07:51.346Z,8.89
2023-02-05T12:10:29.776Z,8.77
2023-02-05T12:12:59.956Z,8.43
2023-02-05T12:15:35.014Z,7.99
2023-02-05T12:18:33.965Z,8.29
2023-02-05T12:21:18.975Z,8.28
2023-02-05T12:24:18.279Z,7.58
2023-02-05T12:26:48.867Z,7.80
2023-02-05T12:29:28.759Z,7.36
2023-02-05T12:32:02.413Z,7.42
2023-02-05T12:34:46.182Z,7.16
2023-02-05T12:37:22.454Z,7.39
2023-02-05T12:39:55.039Z,7.21
2023-02-05T12:42:37.377Z,7.14
2023-02-05T12:45:26.398Z,7.20
2023-02-05T12:48:09.175Z,7.47
2023-02-05T12:51:04.479Z,7.41
2023-02-05T12:53:38.989Z,7.24
2023-02-05T12:56:41.946Z,7.05
2023-02-05T12:59:26.185Z,7.18
2023-02-05T13:02:01.569Z,7.44
2023-02-05T13:04:52.316Z,7.65
2023-02-05T13:07:33.513Z,7.16
2023-02-05T13:10:08.297Z,7.29
2023-02-05T13:12:43.443Z,7.73
2023-02-05T13:16:42.169Z,7.45
2023-02-05T13:19:34.207Z,7.31
2023-02-05T13:22:30.079Z,7.28
2023-02-05T13:25:27.366Z,7.23
2023-02-05T13:28:30.342Z,7.46
2023-02-05T13:30:59.819Z,7.39
2023-02-05T13:33:27.931Z,7.05
2023-02-05T13:36:26.309Z,7.21
2023-02-05T13:39:17.870Z,7.44
2023-02-05T13:42:22.289Z,7.73
2023-02-05T13:45:13.829Z,7.76
2023-02-05T13:48:20.468Z,7.20
2023-02-05T13:51:26.125Z,7.01
2023-02-05T13:54:25.791Z,7.20
2023-02-05T13:57:14.813Z,7.16
2023-02-05T13:59:51.697Z,7.15
2023-02-05T14:02:41.141Z,7.35
2023-02-05T14:05:10.281Z,7.00
2023-02-05T14:07:45.972Z,6.88
2023-02-05T14:10:42.351Z,6.91
2023-02-05T14:13:24.594Z,6.70
2023-02-05T14:15:57.620Z,6.90
2023-02-05T14:18:40.266Z,6.92
2023-02-05T14:21:29.486Z,6.68
2023-02-05T14:24:17.861Z,6.46
2023-02-05T14:26:49.696Z,6.43
2023-02-05T14:29:43.156Z,6.38
2023-02-05T14:32:15.631Z,6.32
2023-02-05T14:34:49.709Z,6.38
2023-02-05T14:37:45.609Z,6.41
2023-02-05T14:40:36.852Z,6.21
2023-02-05T14:43:27.397Z,6.39
2023-02-05T14:45:57.971Z,6.26
2023-02-05T14:48:33.913Z,6.46
2023-02-05T14:51:26.723Z,6.30
2023-02-05T14:53:58.166Z,6.40
2023-02-05T14:56:40.614Z,6.43
2023-02-05T14:59:22.128Z,6.17
2023-02-05T15:01:54.470Z,6.06
2023-02-05T15:04:46.474Z,6.04
2023-02-05T15:07:21.459Z,5.93
2023-02-05T15:10:13.361Z,5.84
2023-02-05T15:12:57.013Z,5.80
2023-02-05T15:15:33.670Z,5.96
2023-02-05T15:18:31.403Z,6.00
2023-02-05T15:21:01.206Z,6.13
2023-02-05T15:23:41.079Z,5.99
2023-02-05T15:26:21.392Z,5.83
2023-02-05T15:29:29.085Z,6.04
2023-02-05T15:32:33.028Z,5.73
2023-02-05T15:35:14.481Z,5.82
2023-02-05T15:38:03.137Z,5.95
2023-02-05T15:40:35.379Z,5.62
2023-02-05T15:43:23.747Z,5.56
2023-02-05T15:45:58.498Z,5.57
2023-02-05T15:48:27.934Z,5.60
2023-02-05T15:51:00.026Z,5.69
2023-02-05T15:53:42.977Z,5.52
2023-02-05T15:56:44.165Z,5.48
2023-02-05T15:59:13.642Z,5.55
2023-02-05T16:01:46.778Z,5.27
2023-02-05T16:04:19.962Z,5.49
2023-02-05T16:06:47.676Z,5.22
2023-02-05T16:09:27.415Z,5.50
2023-02-05T16:12:18.247Z,5.38
2023-02-05T16:14:47.216Z,5.24
2023-02-05T16:17:23.163Z,5.23
2023-02-05T16:20:12.813Z,5.13
2023-02-05T16:22:46.695Z,5.19
2023-02-05T16:25:20.351Z,5.16
2023-02-05T16:27:53.124Z,5.19
2023-02-05T16:30:35.244Z,5.30
2023-02-05T16:33:05.156Z,5.35
2023-02-05T16:35:37.720Z,5.23
2023-02-05T16:38:09.208Z,5.18
2023-02-05T16:40:42.045Z,5.29
2023-02-05T16:43:36.857Z,5.12
2023-02-05T16:46:07.377Z,5.16
2023-02-05T16:48:48.357Z,5.04
2023-02-05T16:51:35.698Z,5.05
2023-02-05T16:54:11.202Z,5.18
2023-02-05T16:56:54.251Z,5.08
2023-02-05T16:59:47.125Z,4.97
2023-02-05T17:02:24.854Z,5.05
2023-02-05T17:04:54.927Z,5.11
2023-02-05T17:07:22.889Z,5.05
2023-02-05T17:09:51.383Z,4.92
2023-02-05T17:12:21.521Z,4.92
2023-02-05T17:15:15.273Z,4.97
2023-02-05T17:17:53.608Z,4.96
2023-02-05T17:20:27.047Z,4.75
2023-02-05T17:23:00.415Z,4.95
2023-02-05T17:25:40.247Z,4.95
2023-02-05T17:28:13.364Z,4.81
2023-02-05T17:30:43.029Z,5.05
2023-02-05T17:33:17.145Z,4.96
2023-02-05T17:35:45.121Z,4.99
2023-02-05T17:38:12.910Z,5.03
2023-02-05T17:40:41.066Z,5.05
2023-02-05T17:43:08.836Z,5.01
2023-02-05T17:45:39.855Z,4.89
2023-02-05T17:48:08.187Z,4.89
2023-02-05T17:50:36.820Z,4.96
2023-02-05T17:53:04.614Z,4.96
2023-02-05T17:55:32.172Z,5.03
2023-02-05T17:57:59.793Z,4.83
2023-02-05T18:00:31.926Z,4.98
2023-02-05T18:02:59.469Z,4.90
2023-02-05T18:05:28.344Z,4.94
2023-02-05T18:07:58.545Z,4.95
2023-02-05T18:10:29.507Z,4.84
2023-02-05T18:12:57.178Z,4.84
2023-02-05T18:15:26.204Z,4.80
2023-02-05T18:17:54.100Z,4.89
2023-02-05T18:20:22.691Z,4.96
2023-02-05T18:22:50.702Z,5.02
2023-02-05T18:25:19.523Z,4.92
2023-02-05T18:27:50.421Z,4.83
2023-02-05T18:30:18.246Z,4.77
2023-02-05T18:32:46.120Z,4.82
2023-02-05T18:35:14.952Z,4.66
2023-02-05T18:37:43.458Z,4.84
2023-02-05T18:40:11.975Z,4.79
2023-02-05T18:42:41.369Z,4.77
2023-02-05T18:45:09.582Z,4.76
2023-02-05T18:47:37.121Z,4.70
2023-02-05T18:50:05.252Z,4.74
2023-02-05T18:52:33.233Z,4.68
2023-02-05T18:55:00.835Z,4.78
2023-02-05T18:57:28.833Z,4.65
2023-02-05T18:59:56.349Z,4.51
2023-02-05T19:02:23.998Z,4.58
2023-02-05T19:04:55.897Z,4.68
2023-02-05T19:07:24.968Z,4.67
2023-02-05T19:09:53.185Z,4.73
2023-02-05T19:12:22.850Z,4.62
2023-02-05T19:14:51.160Z,4.72
2023-02-05T19:17:20.623Z,4.74
2023-02-05T19:19:49.859Z,4.68
2023-02-05T19:22:17.672Z,4.65
2023-02-05T19:24:46.006Z,4.65
2023-02-05T19:27:16.113Z,4.62
2023-02-05T19:29:44.156Z,4.57
2023-02-05T19:32:37.153Z,4.57
2023-02-05T19:35:05.676Z,4.61
2023-02-05T19:37:33.304Z,4.65
2023-02-05T19:40:06.278Z,4.69
2023-02-05T19:42:33.960Z,4.72
2023-02-05T19:45:04.823Z,4.65
2023-02-05T19:47:32.519Z,4.68
2023-02-05T19:50:00.298Z,4.64
2023-02-05T19:52:28.010Z,4.61
2023-02-05T19:54:55.705Z,4.65
2023-02-05T19:57:23.513Z,4.66
2023-02-05T19:59:51.138Z,4.69
2023-02-05T20:02:19.484Z,4.76
2023-02-05T20:04:47.360Z,4.84
2023-02-05T20:07:15.309Z,4.76
2023-02-05T20:09:42.883Z,4.77
2023-02-05T20:12:13.271Z,4.74
2023-02-05T20:14:40.870Z,4.74
2023-02-05T20:17:09.665Z,4.66
2023-02-05T20:19:37.522Z,4.71
2023-02-05T20:22:05.266Z,4.60
2023-02-05T20:24:33.024Z,4.68
2023-02-05T20:27:00.765Z,4.74
2023-02-05T20:29:47.056Z,4.69
2023-02-05T20:32:14.645Z,4.80
2023-02-05T20:34:47.706Z,4.78
2023-02-05T20:37:15.925Z,4.98
2023-02-05T20:39:44.954Z,4.87
2023-02-05T20:42:16.346Z,4.86
2023-02-05T20:44:52.754Z,4.78
2023-02-05T20:47:20.328Z,4.76
2023-02-05T20:49:47.942Z,4.71
2023-02-05T20:52:16.787Z,4.73
2023-02-05T20:54:44.473Z,4.72
2023-02-05T20:57:12.118Z,4.74
2023-02-05T20:59:57.553Z,4.76
2023-02-05T21:02:26.720Z,4.75
2023-02-05T21:05:02.233Z,4.74
2023-02-05T21:07:55.757Z,4.71
2023-02-05T21:10:39.819Z,4.69
2023-02-05T21:13:07.476Z,4.66
2023-02-05T21:15:35.104Z,4.69
2023-02-05T21:18:02.641Z,4.82
2023-02-05T21:20:30.483Z,4.73
2023-02-05T21:22:58.221Z,4.75
2023-02-05T21:25:26.351Z,4.81
2023-02-05T21:27:54.069Z,4.96
2023-02-05T21:30:21.786Z,4.97
2023-02-05T21:32:52.516Z,4.91
2023-02-05T21:35:20.282Z,4.89
2023-02-05T21:37:47.984Z,4.93
2023-02-05T21:40:15.639Z,4.86
2023-02-05T21:42:43.228Z,4.84
2023-02-05T21:45:11.938Z,4.90
2023-02-05T21:47:39.712Z,4.91
2023-02-05T21:50:07.884Z,4.94
2023-02-05T21:52:35.447Z,4.89
2023-02-05T21:55:03.030Z,4.87
2023-02-05T22:02:25.447Z,4.90
2023-02-05T22:37:33.002Z,4.79
2023-02-05T22:40:08.371Z,4.67
2023-02-05T22:42:54.523Z,4.72
2023-02-05T22:49:39.697Z,4.69
2023-02-05T22:52:21.781Z,4.69
2023-02-05T22:55:15.214Z,4.06
2023-02-05T22:57:50.730Z,4.33
2023-02-05T23:00:31.120Z,4.37
2023-02-05T23:03:26.981Z,4.58
2023-02-05T23:06:23.541Z,4.65
2023-02-05T23:12:59.683Z,4.78
2023-02-05T23:15:46.281Z,4.94
2023-02-05T23:18:36.147Z,4.74
2023-02-05T23:21:23.284Z,4.63
2023-02-05T23:23:55.992Z,4.67
2023-02-05T23:26:34.188Z,4.70
2023-02-05T23:33:19.161Z,4.77
2023-02-05T23:39:16.156Z,4.87
2023-02-05T23:41:58.144Z,4.87
2023-02-05T23:44:39.394Z,4.50
2023-02-05T23:47:10.948Z,4.56
2023-02-05T23:49:51.415Z,4.59
2023-02-05T23:52:38.104Z,4.68
2023-02-05T23:55:11.722Z,4.78
